createdAt,value
2023-05-09T00:00:22.238Z,3.30
2023-05-09T00:02:52.205Z,1.90
2023-05-09T00:05:25.812Z,0.93
2023-05-09T00:07:54.793Z,0.93
2023-05-09T00:10:24.104Z,3.83
2023-05-09T00:12:53.704Z,2.35
2023-05-09T00:15:22.655Z,1.27
2023-05-09T00:17:54.685Z,2.05
2023-05-09T00:20:23.947Z,2.72
2023-05-09T00:22:53.110Z,0.82
2023-05-09T00:25:22.002Z,1.95
2023-05-09T00:27:51.333Z,1.95
2023-05-09T00:30:21.086Z,1.27
2023-05-09T00:32:50.298Z,3.40
2023-05-09T00:35:20.246Z,0.50
2023-05-09T00:37:49.684Z,5.55
2023-05-09T00:40:18.618Z,1.25
2023-05-09T00:42:47.611Z,2.80
2023-05-09T00:45:17.027Z,2.10
2023-05-09T00:47:46.231Z,3.78
2023-05-09T00:50:15.705Z,6.88
2023-05-09T00:52:45.147Z,1.33
2023-05-09T00:55:16.768Z,0.82
2023-05-09T00:57:46.788Z,1.02
2023-05-09T01:00:16.355Z,1.15
2023-05-09T01:02:49.656Z,2.30
2023-05-09T01:05:19.956Z,5.53
2023-05-09T01:07:58.334Z,0.70
2023-05-09T01:10:38.966Z,1.75
2023-05-09T01:13:33.107Z,1.30
2023-05-09T01:16:11.434Z,1.63
2023-05-09T01:18:58.897Z,0.50
2023-05-09T01:21:31.530Z,0.65
2023-05-09T01:24:34.446Z,1.90
2023-05-09T01:27:25.308Z,0.80
2023-05-09T01:29:59.178Z,0.80
2023-05-09T01:32:30.918Z,1.58
2023-05-09T01:35:03.985Z,1.27
2023-05-09T01:37:36.867Z,0.50
2023-05-09T01:40:11.631Z,2.95
2023-05-09T01:43:05.019Z,1.83
2023-05-09T01:45:35.666Z,0.73
2023-05-09T01:48:08.122Z,3.35
2023-05-09T01:50:37.896Z,2.00
2023-05-09T01:53:09.185Z,4.20
2023-05-09T01:55:40.522Z,1.00
2023-05-09T01:58:10.973Z,5.38
2023-05-09T02:00:40.578Z,1.23
2023-05-09T02:03:10.612Z,1.02
2023-05-09T02:05:40.950Z,0.82
2023-05-09T02:08:11.274Z,2.30
2023-05-09T02:10:41.446Z,2.22
2023-05-09T02:13:11.069Z,1.38
2023-05-09T02:15:41.111Z,2.33
2023-05-09T02:18:10.142Z,0.98
2023-05-09T02:20:39.119Z,0.73
2023-05-09T02:23:08.190Z,1.45
2023-05-09T02:25:37.447Z,2.05
2023-05-09T02:28:10.063Z,4.32
2023-05-09T02:30:44.249Z,3.03
2023-05-09T02:33:14.727Z,1.52
2023-05-09T02:35:47.155Z,2.17
2023-05-09T02:38:16.774Z,1.00
2023-05-09T02:40:49.820Z,0.60
2023-05-09T02:43:20.422Z,3.53
2023-05-09T02:45:50.683Z,2.78
2023-05-09T02:48:20.875Z,4.13
2023-05-09T02:50:49.977Z,4.10
2023-05-09T02:53:18.969Z,4.85
2023-05-09T02:55:47.965Z,1.15
2023-05-09T02:58:16.961Z,3.17
2023-05-09T03:00:46.770Z,0.88
2023-05-09T03:03:18.781Z,1.38
2023-05-09T03:05:48.359Z,0.63
2023-05-09T03:08:17.923Z,1.30
2023-05-09T03:10:48.568Z,0.65
2023-05-09T03:13:17.949Z,1.17
2023-05-09T03:15:47.020Z,0.75
2023-05-09T03:18:16.034Z,0.60
2023-05-09T03:20:45.444Z,1.55
2023-05-09T03:23:14.450Z,2.55
2023-05-09T03:25:43.534Z,0.90
2023-05-09T03:28:12.398Z,1.23
2023-05-09T03:30:41.480Z,2.20
2023-05-09T03:33:14.502Z,1.23
2023-05-09T03:35:43.450Z,1.95
2023-05-09T03:38:12.511Z,6.50
2023-05-09T03:40:41.569Z,4.70
2023-05-09T03:43:12.560Z,0.80
2023-05-09T03:45:41.577Z,4.18
2023-05-09T03:48:12.397Z,3.75
2023-05-09T03:50:47.037Z,4.85
2023-05-09T03:53:17.286Z,4.03
2023-05-09T03:55:48.758Z,1.00
2023-05-09T03:58:20.158Z,0.95
2023-05-09T04:00:49.771Z,1.73
2023-05-09T04:03:24.350Z,0.70
2023-05-09T04:05:58.006Z,6.35
2023-05-09T04:08:34.032Z,1.88
2023-05-09T04:11:04.793Z,1.20
2023-05-09T04:13:35.375Z,1.40
2023-05-09T04:16:09.463Z,1.30
2023-05-09T04:18:40.785Z,4.45
2023-05-09T04:21:10.284Z,3.83
2023-05-09T04:23:40.231Z,3.15
2023-05-09T04:26:10.607Z,2.58
2023-05-09T04:28:39.791Z,1.80
2023-05-09T04:31:09.052Z,4.00
2023-05-09T04:33:39.952Z,1.65
2023-05-09T04:36:36.961Z,0.73
2023-05-09T04:39:11.804Z,1.75
2023-05-09T04:41:48.580Z,1.48
2023-05-09T04:44:19.504Z,2.10
2023-05-09T04:46:48.550Z,1.33
2023-05-09T04:49:17.612Z,1.52
2023-05-09T04:51:46.824Z,2.13
2023-05-09T04:54:15.855Z,4.28
2023-05-09T04:56:45.685Z,4.68
2023-05-09T04:59:15.549Z,7.50
2023-05-09T05:01:45.353Z,14.15
2023-05-09T05:04:14.865Z,40.50
2023-05-09T05:06:58.465Z,36.47
2023-05-09T05:09:28.713Z,20.73
2023-05-09T05:12:01.266Z,53.22
2023-05-09T05:14:33.456Z,39.28
2023-05-09T05:17:03.093Z,35.25
2023-05-09T05:19:32.834Z,11.63
2023-05-09T05:22:02.669Z,4.88
2023-05-09T05:24:33.855Z,3.45
2023-05-09T05:27:04.182Z,1.85
2023-05-09T05:29:33.518Z,2.33
2023-05-09T05:32:02.657Z,2.50
2023-05-09T05:34:32.164Z,3.17
2023-05-09T05:37:01.777Z,2.20
2023-05-09T05:39:30.932Z,3.75
2023-05-09T05:41:59.989Z,0.80
2023-05-09T05:44:29.127Z,1.88
2023-05-09T05:46:58.590Z,1.15
2023-05-09T05:49:28.992Z,2.00
2023-05-09T05:51:58.405Z,3.72
2023-05-09T05:54:28.558Z,4.15
2023-05-09T05:56:57.645Z,1.92
2023-05-09T05:59:26.704Z,2.45
2023-05-09T06:01:56.021Z,1.13
2023-05-09T06:04:25.122Z,1.15
2023-05-09T06:06:54.080Z,1.45
2023-05-09T06:09:23.032Z,2.15
2023-05-09T06:11:52.030Z,1.25
2023-05-09T06:14:21.066Z,2.92
2023-05-09T06:16:50.596Z,1.23
2023-05-09T06:19:19.756Z,0.90
2023-05-09T06:21:49.432Z,5.20
2023-05-09T06:24:31.858Z,1.67
2023-05-09T06:27:05.912Z,1.13
2023-05-09T06:29:35.046Z,2.17
2023-05-09T06:32:06.894Z,2.15
2023-05-09T06:34:36.781Z,2.22
2023-05-09T06:37:06.293Z,0.93
2023-05-09T06:39:36.294Z,3.78
2023-05-09T06:42:05.251Z,1.23
2023-05-09T06:44:39.576Z,2.35
2023-05-09T06:47:08.843Z,2.78
2023-05-09T06:49:37.865Z,1.00
2023-05-09T06:52:06.807Z,2.58
2023-05-09T06:54:35.881Z,0.80
2023-05-09T06:57:05.111Z,0.60
2023-05-09T06:59:35.306Z,3.25
2023-05-09T07:02:04.586Z,2.33
2023-05-09T07:04:33.734Z,3.22
2023-05-09T07:07:02.915Z,4.80
2023-05-09T07:09:32.013Z,0.70
2023-05-09T07:12:03.938Z,0.80
2023-05-09T07:14:33.111Z,2.17
2023-05-09T07:17:18.178Z,3.28
2023-05-09T07:19:51.640Z,2.55
2023-05-09T07:22:20.905Z,1.98
2023-05-09T07:24:49.951Z,3.88
2023-05-09T07:27:18.967Z,0.93
2023-05-09T07:29:49.927Z,3.13
2023-05-09T07:32:22.093Z,3.13
2023-05-09T07:34:51.070Z,3.80
2023-05-09T07:37:20.012Z,1.88
2023-05-09T07:39:49.087Z,4.68
2023-05-09T07:42:17.983Z,1.55
2023-05-09T07:44:47.330Z,1.33
2023-05-09T07:47:16.332Z,1.52
2023-05-09T07:49:47.312Z,1.27
2023-05-09T07:52:18.077Z,2.20
2023-05-09T07:54:47.159Z,2.20
2023-05-09T07:57:16.944Z,3.97
2023-05-09T07:59:46.019Z,3.90
2023-05-09T08:02:15.411Z,2.60
2023-05-09T08:04:44.822Z,5.18
2023-05-09T08:07:13.902Z,2.35
2023-05-09T08:09:42.977Z,0.75
2023-05-09T08:12:11.904Z,1.30
2023-05-09T08:14:40.919Z,2.83
2023-05-09T08:17:09.919Z,1.85
2023-05-09T08:19:38.807Z,1.15
2023-05-09T08:22:07.754Z,1.20
2023-05-09T08:24:36.784Z,2.05
2023-05-09T08:27:05.720Z,1.17
2023-05-09T08:29:34.767Z,1.45
2023-05-09T08:32:03.809Z,2.28
2023-05-09T08:34:35.397Z,1.73
2023-05-09T08:37:05.782Z,6.50
2023-05-09T08:39:36.185Z,3.85
2023-05-09T08:42:05.428Z,4.78
2023-05-09T08:44:34.310Z,0.70
2023-05-09T08:47:05.345Z,2.38
2023-05-09T08:49:36.504Z,1.20
2023-05-09T08:52:07.078Z,4.18
2023-05-09T08:54:37.827Z,1.50
2023-05-09T08:57:07.568Z,2.40
2023-05-09T08:59:38.331Z,0.77
2023-05-09T09:02:08.882Z,3.92
2023-05-09T09:04:38.202Z,3.28
2023-05-09T09:07:08.827Z,2.35
2023-05-09T09:09:40.223Z,2.83
2023-05-09T09:12:10.815Z,2.92
2023-05-09T09:14:43.688Z,0.95
2023-05-09T09:17:16.558Z,1.30
2023-05-09T09:19:49.396Z,5.30
2023-05-09T09:22:21.629Z,3.35
2023-05-09T09:24:51.780Z,3.22
2023-05-09T09:27:20.905Z,2.13
2023-05-09T09:29:49.734Z,1.65
2023-05-09T09:32:20.474Z,1.27
2023-05-09T09:34:52.332Z,4.18
2023-05-09T09:37:25.052Z,2.60
2023-05-09T09:39:58.021Z,2.80
2023-05-09T09:42:26.934Z,3.17
2023-05-09T09:45:04.191Z,3.75
2023-05-09T09:47:34.735Z,3.25
2023-05-09T09:50:18.876Z,3.53
2023-05-09T09:52:58.820Z,5.40
2023-05-09T09:55:28.037Z,4.57
2023-05-09T09:57:56.989Z,6.30
2023-05-09T10:00:28.751Z,2.13
2023-05-09T10:02:59.505Z,4.20
2023-05-09T10:05:35.228Z,1.13
2023-05-09T10:08:06.095Z,2.83
2023-05-09T10:10:36.588Z,1.83
2023-05-09T10:13:08.623Z,6.95
2023-05-09T10:15:52.444Z,3.03
2023-05-09T10:18:28.973Z,2.55
2023-05-09T10:21:04.502Z,1.10
2023-05-09T10:23:38.330Z,2.67
2023-05-09T10:26:30.632Z,3.58
2023-05-09T10:29:06.805Z,2.25
2023-05-09T10:31:38.170Z,1.10
2023-05-09T10:34:11.490Z,3.38
2023-05-09T10:36:40.593Z,2.05
2023-05-09T10:39:10.502Z,3.28
2023-05-09T10:41:40.728Z,2.47
2023-05-09T10:44:09.724Z,4.38
2023-05-09T10:46:39.092Z,2.15
2023-05-09T10:49:08.988Z,2.72
2023-05-09T10:51:38.161Z,1.50
2023-05-09T10:54:16.755Z,1.60
2023-05-09T10:56:45.751Z,3.30
2023-05-09T10:59:43.942Z,2.63
2023-05-09T11:02:21.793Z,1.45
2023-05-09T11:05:10.703Z,2.20
2023-05-09T11:07:40.675Z,5.47
2023-05-09T11:10:18.699Z,2.58
2023-05-09T11:13:01.812Z,1.25
2023-05-09T11:15:31.253Z,2.05
2023-05-09T11:18:13.162Z,2.00
2023-05-09T11:20:47.223Z,3.72
2023-05-09T11:23:26.652Z,2.30
2023-05-09T11:26:07.288Z,2.70
2023-05-09T11:28:38.455Z,5.35
2023-05-09T11:31:19.596Z,1.63
2023-05-09T11:33:55.966Z,3.25
2023-05-09T11:36:36.407Z,2.17
2023-05-09T11:39:07.185Z,3.15
2023-05-09T11:41:47.854Z,2.50
2023-05-09T11:44:25.905Z,3.50
2023-05-09T11:46:55.332Z,1.95
2023-05-09T11:49:24.603Z,2.03
2023-05-09T11:51:53.597Z,1.40
2023-05-09T11:54:26.058Z,3.47
2023-05-09T11:56:55.398Z,1.75
2023-05-09T11:59:25.453Z,1.80
2023-05-09T12:01:55.424Z,2.65
2023-05-09T12:04:24.723Z,2.00
2023-05-09T12:06:53.846Z,2.50
2023-05-09T12:09:23.162Z,3.70
2023-05-09T12:11:52.596Z,3.65
2023-05-09T12:14:32.020Z,2.00
2023-05-09T12:17:01.163Z,1.98
2023-05-09T12:19:30.301Z,1.20
2023-05-09T12:22:03.268Z,2.80
2023-05-09T12:24:32.585Z,3.25
2023-05-09T12:27:02.184Z,3.30
2023-05-09T12:29:31.827Z,3.90
2023-05-09T12:32:01.500Z,1.90
2023-05-09T12:34:30.546Z,5.63
2023-05-09T12:37:00.929Z,2.50
2023-05-09T12:39:29.993Z,6.68
2023-05-09T12:42:01.974Z,1.60
2023-05-09T12:44:31.663Z,3.42
2023-05-09T12:47:04.736Z,3.47
2023-05-09T12:49:37.636Z,1.73
2023-05-09T12:52:09.102Z,4.38
2023-05-09T12:54:39.171Z,5.60
2023-05-09T12:57:23.614Z,6.22
2023-05-09T12:59:52.808Z,4.78
2023-05-09T13:02:21.933Z,3.15
2023-05-09T13:04:51.024Z,2.35
2023-05-09T13:07:20.369Z,6.32
2023-05-09T13:09:57.776Z,2.88
2023-05-09T13:12:27.342Z,3.67
2023-05-09T13:14:56.433Z,2.67
2023-05-09T13:17:25.505Z,3.60
2023-05-09T13:19:54.927Z,4.68
2023-05-09T13:22:24.092Z,1.80
2023-05-09T13:24:53.041Z,2.38
2023-05-09T13:27:22.069Z,2.58
2023-05-09T13:29:51.052Z,4.50
2023-05-09T13:32:22.815Z,4.40
2023-05-09T13:34:55.051Z,3.47
2023-05-09T13:37:24.006Z,3.50
2023-05-09T13:39:53.066Z,5.40
2023-05-09T13:42:22.286Z,3.35
2023-05-09T13:44:53.899Z,2.47
2023-05-09T13:47:23.196Z,4.70
2023-05-09T13:49:53.129Z,4.28
2023-05-09T13:52:22.262Z,2.45
2023-05-09T13:54:51.462Z,3.55
2023-05-09T13:57:20.699Z,6.93
2023-05-09T13:59:49.684Z,3.15
2023-05-09T14:02:19.702Z,5.05
2023-05-09T14:04:49.229Z,4.43
2023-05-09T14:07:18.667Z,7.35
2023-05-09T14:09:51.955Z,3.78
2023-05-09T14:12:23.392Z,3.38
2023-05-09T14:14:52.397Z,5.97
2023-05-09T14:17:22.110Z,3.13
2023-05-09T14:19:51.976Z,8.02
2023-05-09T14:22:21.040Z,3.00
2023-05-09T14:24:50.024Z,3.75
2023-05-09T14:27:19.213Z,3.47
2023-05-09T14:29:48.105Z,2.95
2023-05-09T14:32:17.307Z,4.05
2023-05-09T14:34:46.716Z,1.85
2023-05-09T14:37:15.870Z,3.03
2023-05-09T14:39:49.334Z,3.63
2023-05-09T14:42:19.873Z,3.83
2023-05-09T14:44:48.916Z,1.92
2023-05-09T14:47:17.853Z,4.13
2023-05-09T14:49:46.893Z,2.05
2023-05-09T14:52:21.272Z,2.40
2023-05-09T14:54:50.369Z,4.55
2023-05-09T14:57:19.666Z,3.53
2023-05-09T14:59:49.040Z,3.00
2023-05-09T15:02:18.478Z,4.63
2023-05-09T15:04:47.521Z,4.75
2023-05-09T15:07:16.609Z,2.50
2023-05-09T15:09:45.564Z,2.70
2023-05-09T15:12:15.659Z,6.57
2023-05-09T15:14:44.770Z,13.80
2023-05-09T15:17:14.278Z,6.63
2023-05-09T15:19:44.856Z,3.08
2023-05-09T15:22:14.427Z,3.38
2023-05-09T15:24:46.631Z,2.30
2023-05-09T15:27:15.811Z,5.22
2023-05-09T15:29:50.508Z,3.28
2023-05-09T15:32:20.643Z,1.08
2023-05-09T15:34:49.748Z,3.33
2023-05-09T15:37:18.644Z,6.72
2023-05-09T15:39:47.779Z,4.70
2023-05-09T15:42:17.563Z,2.33
2023-05-09T15:44:49.764Z,6.53
2023-05-09T15:47:18.840Z,4.18
2023-05-09T15:49:47.736Z,3.70
2023-05-09T15:52:17.075Z,3.90
2023-05-09T15:54:46.283Z,2.97
2023-05-09T15:57:15.317Z,4.18
2023-05-09T15:59:44.381Z,2.90
2023-05-09T16:02:13.502Z,4.13
2023-05-09T16:04:43.413Z,2.30
2023-05-09T16:07:12.624Z,5.22
2023-05-09T16:09:41.568Z,2.78
2023-05-09T16:12:10.639Z,3.45
2023-05-09T16:14:39.779Z,4.28
2023-05-09T16:17:09.131Z,4.00
2023-05-09T16:19:38.191Z,2.17
2023-05-09T16:22:07.491Z,6.07
2023-05-09T16:24:38.932Z,4.90
2023-05-09T16:27:07.986Z,10.73
2023-05-09T16:29:37.311Z,3.03
2023-05-09T16:32:06.797Z,6.03
2023-05-09T16:34:36.460Z,5.40
2023-05-09T16:37:05.673Z,4.85
2023-05-09T16:39:34.808Z,9.48
2023-05-09T16:42:04.889Z,3.15
2023-05-09T16:44:34.120Z,2.88
2023-05-09T16:47:03.282Z,2.22
2023-05-09T16:49:32.301Z,2.05
2023-05-09T16:52:01.282Z,2.45
2023-05-09T16:54:32.259Z,2.50
2023-05-09T16:57:01.834Z,4.82
2023-05-09T16:59:30.746Z,3.42
2023-05-09T17:02:00.794Z,5.32
2023-05-09T17:04:30.170Z,3.53
2023-05-09T17:06:59.171Z,3.03
2023-05-09T17:09:28.141Z,4.30
2023-05-09T17:11:57.265Z,1.73
2023-05-09T17:14:26.231Z,2.92
2023-05-09T17:16:55.470Z,4.53
2023-05-09T17:19:24.663Z,3.17
2023-05-09T17:21:54.312Z,11.35
2023-05-09T17:24:23.546Z,3.08
2023-05-09T17:26:52.858Z,2.45
2023-05-09T17:29:21.860Z,3.75
2023-05-09T17:31:50.829Z,2.22
2023-05-09T17:34:19.889Z,5.93
2023-05-09T17:36:48.843Z,2.58
2023-05-09T17:39:18.466Z,4.05
2023-05-09T17:41:48.042Z,4.53
2023-05-09T17:44:17.451Z,2.40
2023-05-09T17:46:46.375Z,1.50
2023-05-09T17:49:16.103Z,2.97
2023-05-09T17:51:45.446Z,2.55
2023-05-09T17:54:15.129Z,7.30
2023-05-09T17:56:44.673Z,2.58
2023-05-09T17:59:14.217Z,4.47
2023-05-09T18:01:43.166Z,2.85
2023-05-09T18:04:12.051Z,3.55
2023-05-09T18:06:41.202Z,7.35
2023-05-09T18:09:10.069Z,2.67
2023-05-09T18:11:39.481Z,2.03
2023-05-09T18:14:08.478Z,4.88
2023-05-09T18:16:38.484Z,4.57
2023-05-09T18:19:07.769Z,2.78
2023-05-09T18:21:37.168Z,3.63
2023-05-09T18:24:07.028Z,6.13
2023-05-09T18:26:36.156Z,4.90
2023-05-09T18:29:05.254Z,1.88
2023-05-09T18:31:39.401Z,8.00
2023-05-09T18:34:10.147Z,5.65
2023-05-09T18:36:39.326Z,3.15
2023-05-09T18:39:09.689Z,3.33
2023-05-09T18:41:38.681Z,3.50
2023-05-09T18:44:08.163Z,7.80
2023-05-09T18:46:38.781Z,5.20
2023-05-09T18:49:08.713Z,2.75
2023-05-09T18:51:38.220Z,1.88
2023-05-09T18:54:08.029Z,3.67
2023-05-09T18:56:40.992Z,1.27
2023-05-09T18:59:17.212Z,6.00
2023-05-09T19:01:47.034Z,2.63
2023-05-09T19:04:18.082Z,2.63
2023-05-09T19:06:47.689Z,2.78
2023-05-09T19:09:17.484Z,2.95
2023-05-09T19:11:46.606Z,1.00
2023-05-09T19:14:15.631Z,1.92
2023-05-09T19:16:46.210Z,1.92
2023-05-09T19:19:15.642Z,3.35
2023-05-09T19:21:46.507Z,2.28
2023-05-09T19:24:16.589Z,2.72
2023-05-09T19:26:49.706Z,2.97
2023-05-09T19:29:20.218Z,5.20
2023-05-09T19:31:49.200Z,1.15
2023-05-09T19:34:18.957Z,2.63
2023-05-09T19:36:47.960Z,2.45
2023-05-09T19:39:16.922Z,2.03
2023-05-09T19:41:48.859Z,2.38
2023-05-09T19:44:17.853Z,4.40
2023-05-09T19:46:47.621Z,3.13
2023-05-09T19:49:18.040Z,1.52
2023-05-09T19:51:49.690Z,1.02
2023-05-09T19:54:21.506Z,1.45
2023-05-09T19:56:51.883Z,4.10
2023-05-09T19:59:21.488Z,1.85
2023-05-09T20:01:52.708Z,2.95
2023-05-09T20:04:25.069Z,2.17
2023-05-09T20:06:54.932Z,1.35
2023-05-09T20:09:24.048Z,1.98
2023-05-09T20:11:55.706Z,4.07
2023-05-09T20:14:24.714Z,1.08
2023-05-09T20:16:54.020Z,1.23
2023-05-09T20:19:23.689Z,2.30
2023-05-09T20:21:52.734Z,2.17
2023-05-09T20:24:21.755Z,2.15
2023-05-09T20:26:51.425Z,3.92
2023-05-09T20:29:20.481Z,3.05
2023-05-09T20:31:49.471Z,4.93
2023-05-09T20:34:20.327Z,1.20
2023-05-09T20:36:53.922Z,2.80
2023-05-09T20:39:24.995Z,4.07
2023-05-09T20:41:56.910Z,4.20
2023-05-09T20:44:49.149Z,3.40
2023-05-09T20:47:21.732Z,1.92
2023-05-09T20:49:51.073Z,4.68
2023-05-09T20:52:22.619Z,3.42
2023-05-09T20:54:52.236Z,2.13
2023-05-09T20:57:21.469Z,2.85
2023-05-09T20:59:51.375Z,1.98
2023-05-09T21:02:20.449Z,1.73
2023-05-09T21:04:51.973Z,2.15
2023-05-09T21:07:21.654Z,2.85
2023-05-09T21:09:51.960Z,3.42
2023-05-09T21:12:22.032Z,3.28
2023-05-09T21:14:51.823Z,2.65
2023-05-09T21:17:20.960Z,3.28
2023-05-09T21:19:53.473Z,4.32
2023-05-09T21:22:25.862Z,5.05
2023-05-09T21:24:54.764Z,2.78
2023-05-09T21:27:23.892Z,1.52
2023-05-09T21:29:53.331Z,1.50
2023-05-09T21:32:22.293Z,5.28
2023-05-09T21:34:51.213Z,11.15
2023-05-09T21:37:19.934Z,1.85
2023-05-09T21:39:48.820Z,2.45
2023-05-09T21:42:20.624Z,4.18
2023-05-09T21:44:50.107Z,1.52
2023-05-09T21:47:19.475Z,3.10
2023-05-09T21:49:48.369Z,3.45
2023-05-09T21:52:17.172Z,3.80
2023-05-09T21:54:46.214Z,2.63
2023-05-09T21:57:15.030Z,2.45
2023-05-09T21:59:43.766Z,2.25
2023-05-09T22:02:13.052Z,4.72
2023-05-09T22:04:41.987Z,3.40
2023-05-09T22:07:10.820Z,5.50
2023-05-09T22:09:39.641Z,5.35
2023-05-09T22:12:08.674Z,5.03
2023-05-09T22:14:45.358Z,1.40
2023-05-09T22:17:25.155Z,5.72
2023-05-09T22:19:55.084Z,4.82
2023-05-09T22:22:24.014Z,1.73
2023-05-09T22:24:53.557Z,4.47
2023-05-09T22:27:22.620Z,3.25
2023-05-09T22:29:51.745Z,3.60
2023-05-09T22:32:20.672Z,6.70
2023-05-09T22:34:49.469Z,3.70
2023-05-09T22:37:18.876Z,2.67
2023-05-09T22:39:48.078Z,1.70
2023-05-09T22:42:19.664Z,3.60
2023-05-09T22:44:50.542Z,6.28
2023-05-09T22:47:19.814Z,7.72
2023-05-09T22:49:49.854Z,5.88
2023-05-09T22:52:19.273Z,5.47
2023-05-09T22:54:48.270Z,1.58
2023-05-09T22:57:20.021Z,2.70
2023-05-09T22:59:49.094Z,1.73
2023-05-09T23:02:18.578Z,1.80
2023-05-09T23:04:47.990Z,4.40
2023-05-09T23:07:17.079Z,3.85
2023-05-09T23:09:46.533Z,3.88
2023-05-09T23:12:15.878Z,6.43
2023-05-09T23:14:47.941Z,3.72
2023-05-09T23:17:17.075Z,1.45
2023-05-09T23:19:46.820Z,5.43
2023-05-09T23:22:16.320Z,1.02
2023-05-09T23:24:45.370Z,2.13
2023-05-09T23:27:14.345Z,2.22
2023-05-09T23:29:44.533Z,1.90
2023-05-09T23:32:13.671Z,2.05
2023-05-09T23:34:42.661Z,1.20
2023-05-09T23:37:12.706Z,7.30
2023-05-09T23:39:41.803Z,4.88
2023-05-09T23:42:10.830Z,1.98
2023-05-09T23:44:40.082Z,1.50
2023-05-09T23:47:09.193Z,2.92
2023-05-09T23:49:38.318Z,0.90
2023-05-09T23:52:07.702Z,3.88
2023-05-09T23:54:36.996Z,1.83
2023-05-09T23:57:06.052Z,7.03
2023-05-09T23:59:35.163Z,3.20
